Vaughnsville, Ohio
Current Conditions -  °F | °C
As of 12:53 PM on Saturday 22 Nov 2014 (Local Time) from KAOH Reporting Station
Light Rain Light Rain  
Wind Chill: 39°   Ceiling: 7000
Heat Index: 45°   Visibility: 10mi
Dew Point: 38°   Wind: 13mph
Humidity: 76%   Direction: 210°SSW
Pressure: 30.08"   Gusts: 28mph
Location:  40.88°N, 84.15°W
Report Text: KAOH 221753Z AUTO 21011G24KT 10SM -RA FEW038 BKN070 OVC085 07/03 A3008 RMK AO2 PK WND 22031/1657 RAB26 SLP195 P0000 60004 T00720033 10078 20022 58024
Loading
Personal Weather Stations






























Interactive Weather Map New forecast layout! Learn more

10-Day Weather Forecast

Advertisements
Track Severe Weather on mobile